AAL3330 KMIA-KATL
Flight info
| Callsign | AAL3330 |
|---|---|
| Flight time | N/A |
| Altitude | 36000 |
| Route | FLMGO2 STYMY Q77 MJAMS/N0447F350 Q77 SHRKS/N0450F360 LAIRI LARZZ JJEDI3 |
| Aircraft | A319/M-SDE3FGHIRWY/LB1 |
Departure
| Time | 2026-05-07 16:36 |
|---|---|
| Airport | Miami International Airport (KMIA) |
Arrival
| Time | N/A |
|---|---|
| Airport | Hartsfield Jackson Atlanta International Airport (KATL) |
| Time | Latitude | Longitude | Altitude | Speed | Heading |
|---|---|---|---|---|---|
| 2026-05-07 15:45 | 25.79821 | -80.28269 | 15 ft | 0 kts | 177° |
| 2026-05-07 16:23 | 25.79834 | -80.28269 | 15 ft | 4 kts | 179° |
| 2026-05-07 16:23 | 25.79861 | -80.28268 | 15 ft | 4 kts | 191° |
| 2026-05-07 16:24 | 25.79884 | -80.28258 | 15 ft | 4 kts | 231° |
| 2026-05-07 16:24 | 25.79890 | -80.28246 | 18 ft | 0 kts | 268° |
| 2026-05-07 16:28 | 25.79891 | -80.28274 | 18 ft | 8 kts | 270° |
| 2026-05-07 16:28 | 25.79945 | -80.28335 | 15 ft | 16 kts | 316° |
| 2026-05-07 16:29 | 25.79947 | -80.28480 | 15 ft | 21 kts | 267° |
| 2026-05-07 16:29 | 25.79940 | -80.28648 | 15 ft | 22 kts | 266° |
| 2026-05-07 16:29 | 25.79933 | -80.28786 | 15 ft | 17 kts | 266° |
| 2026-05-07 16:29 | 25.79927 | -80.28899 | 15 ft | 6 kts | 266° |
| 2026-05-07 16:30 | 25.79925 | -80.28952 | 15 ft | 8 kts | 270° |
| 2026-05-07 16:30 | 25.79925 | -80.29042 | 15 ft | 17 kts | 268° |
| 2026-05-07 16:30 | 25.79919 | -80.29185 | 15 ft | 19 kts | 267° |
| 2026-05-07 16:30 | 25.79912 | -80.29335 | 15 ft | 18 kts | 267° |
| 2026-05-07 16:31 | 25.79906 | -80.29476 | 16 ft | 19 kts | 267° |
| 2026-05-07 16:31 | 25.79901 | -80.29589 | 15 ft | 12 kts | 267° |
| 2026-05-07 16:31 | 25.79896 | -80.29686 | 15 ft | 13 kts | 267° |
| 2026-05-07 16:31 | 25.79892 | -80.29794 | 14 ft | 15 kts | 267° |
| 2026-05-07 16:32 | 25.79889 | -80.29895 | 14 ft | 4 kts | 271° |
| 2026-05-07 16:32 | 25.79894 | -80.29930 | 15 ft | 6 kts | 285° |
| 2026-05-07 16:32 | 25.79907 | -80.29967 | 14 ft | 0 kts | 292° |
| 2026-05-07 16:32 | 25.79908 | -80.29968 | 14 ft | 0 kts | 292° |
| 2026-05-07 16:33 | 25.79910 | -80.29974 | 14 ft | 3 kts | 291° |
| 2026-05-07 16:33 | 25.79923 | -80.30011 | 14 ft | 8 kts | 292° |
| 2026-05-07 16:33 | 25.79961 | -80.30074 | 14 ft | 12 kts | 314° |
| 2026-05-07 16:33 | 25.80041 | -80.30126 | 14 ft | 15 kts | 0° |
| 2026-05-07 16:34 | 25.80073 | -80.30066 | 13 ft | 0 kts | 84° |
| 2026-05-07 16:35 | 25.80074 | -80.30052 | 13 ft | 15 kts | 85° |
| 2026-05-07 16:35 | 25.80091 | -80.29631 | 14 ft | 89 kts | 88° |
| 2026-05-07 16:35 | 25.80130 | -80.28719 | 17 ft | 146 kts | 87° |
| 2026-05-07 16:36 | 25.80182 | -80.27476 | 355 ft | 163 kts | 86° |
| 2026-05-07 16:36 | 25.80262 | -80.26222 | 933 ft | 168 kts | 88° |
| 2026-05-07 16:36 | 25.80329 | -80.24926 | 1577 ft | 168 kts | 90° |
| 2026-05-07 16:36 | 25.80388 | -80.23589 | 2066 ft | 183 kts | 90° |
| 2026-05-07 16:37 | 25.80445 | -80.22086 | 2409 ft | 208 kts | 89° |
| 2026-05-07 16:37 | 25.80504 | -80.20396 | 2847 ft | 232 kts | 88° |
| 2026-05-07 16:37 | 25.80576 | -80.18508 | 3364 ft | 257 kts | 86° |
| 2026-05-07 16:37 | 25.81183 | -80.16602 | 4039 ft | 272 kts | 52° |
| 2026-05-07 16:38 | 25.82712 | -80.15374 | 4909 ft | 279 kts | 18° |
| 2026-05-07 16:38 | 25.84626 | -80.15040 | 5828 ft | 281 kts | 1° |
| 2026-05-07 16:38 | 25.86593 | -80.15116 | 6771 ft | 283 kts | 356° |
| 2026-05-07 16:38 | 25.88565 | -80.15312 | 7608 ft | 287 kts | 352° |
| 2026-05-07 16:39 | 25.90495 | -80.15944 | 8452 ft | 292 kts | 338° |
| 2026-05-07 16:39 | 25.92386 | -80.16816 | 9278 ft | 296 kts | 340° |
| 2026-05-07 16:39 | 25.94355 | -80.17577 | 10060 ft | 302 kts | 343° |
| 2026-05-07 16:39 | 25.96400 | -80.18287 | 10571 ft | 318 kts | 344° |
| 2026-05-07 16:40 | 25.98540 | -80.19192 | 10886 ft | 338 kts | 333° |
| 2026-05-07 16:40 | 26.00506 | -80.20675 | 11503 ft | 346 kts | 319° |
| 2026-05-07 16:40 | 26.02321 | -80.22452 | 12294 ft | 348 kts | 318° |
| 2026-05-07 16:40 | 26.04131 | -80.24246 | 13101 ft | 350 kts | 318° |
| 2026-05-07 16:41 | 26.05949 | -80.26057 | 13894 ft | 352 kts | 318° |
| 2026-05-07 16:41 | 26.07777 | -80.27875 | 14604 ft | 353 kts | 318° |
| 2026-05-07 16:41 | 26.09606 | -80.29697 | 15317 ft | 354 kts | 318° |
| 2026-05-07 16:41 | 26.11450 | -80.31533 | 15996 ft | 357 kts | 318° |
| 2026-05-07 16:42 | 26.13304 | -80.33377 | 16686 ft | 359 kts | 318° |
| 2026-05-07 16:42 | 26.15169 | -80.35230 | 17390 ft | 360 kts | 318° |
| 2026-05-07 16:42 | 26.17042 | -80.37091 | 18082 ft | 362 kts | 318° |
| 2026-05-07 16:42 | 26.18923 | -80.38962 | 18717 ft | 364 kts | 318° |
| 2026-05-07 16:43 | 26.20791 | -80.40821 | 19286 ft | 366 kts | 317° |
| 2026-05-07 16:43 | 26.22775 | -80.42616 | 19857 ft | 369 kts | 325° |
| 2026-05-07 16:43 | 26.25027 | -80.44024 | 20437 ft | 373 kts | 333° |
| 2026-05-07 16:43 | 26.27411 | -80.45287 | 21030 ft | 376 kts | 332° |
| 2026-05-07 16:44 | 26.29776 | -80.46539 | 21594 ft | 378 kts | 332° |
| 2026-05-07 16:44 | 26.32133 | -80.47788 | 22144 ft | 381 kts | 332° |
| 2026-05-07 16:44 | 26.34573 | -80.49083 | 22706 ft | 385 kts | 332° |
| 2026-05-07 16:44 | 26.36970 | -80.50356 | 23254 ft | 387 kts | 332° |
| 2026-05-07 16:45 | 26.39413 | -80.51653 | 23769 ft | 390 kts | 332° |
| 2026-05-07 16:45 | 26.41875 | -80.52965 | 24211 ft | 393 kts | 332° |
| 2026-05-07 16:45 | 26.44349 | -80.54284 | 24640 ft | 396 kts | 331° |
| 2026-05-07 16:45 | 26.46851 | -80.55617 | 25062 ft | 399 kts | 331° |
| 2026-05-07 16:46 | 26.49437 | -80.56783 | 25489 ft | 405 kts | 340° |
| 2026-05-07 16:46 | 26.52155 | -80.57650 | 25904 ft | 407 kts | 340° |
| 2026-05-07 16:46 | 26.54891 | -80.58516 | 26332 ft | 410 kts | 340° |
| 2026-05-07 16:46 | 26.57641 | -80.59385 | 26771 ft | 412 kts | 340° |
| 2026-05-07 16:47 | 26.60408 | -80.60260 | 27188 ft | 414 kts | 340° |
| 2026-05-07 16:47 | 26.63193 | -80.61143 | 27605 ft | 417 kts | 340° |
| 2026-05-07 16:47 | 26.65994 | -80.62035 | 28018 ft | 419 kts | 340° |
| 2026-05-07 16:47 | 26.68817 | -80.62936 | 28432 ft | 422 kts | 340° |
| 2026-05-07 16:48 | 26.71647 | -80.63841 | 28837 ft | 424 kts | 340° |
| 2026-05-07 16:48 | 26.74497 | -80.64748 | 29239 ft | 427 kts | 340° |
| 2026-05-07 16:48 | 26.77364 | -80.65658 | 29630 ft | 429 kts | 340° |
| 2026-05-07 16:48 | 26.80243 | -80.66574 | 30014 ft | 432 kts | 340° |
| 2026-05-07 16:49 | 26.83139 | -80.67497 | 30357 ft | 434 kts | 340° |
| 2026-05-07 16:49 | 26.86058 | -80.68428 | 30685 ft | 436 kts | 340° |
| 2026-05-07 16:49 | 26.88987 | -80.69361 | 31004 ft | 439 kts | 339° |
| 2026-05-07 16:49 | 26.91928 | -80.70307 | 31322 ft | 440 kts | 339° |
| 2026-05-07 16:50 | 26.94820 | -80.71314 | 31640 ft | 441 kts | 338° |
| 2026-05-07 16:50 | 26.97724 | -80.72403 | 32087 ft | 439 kts | 336° |
| 2026-05-07 16:50 | 27.00603 | -80.73530 | 32544 ft | 437 kts | 336° |
| 2026-05-07 16:50 | 27.03469 | -80.74665 | 33000 ft | 436 kts | 336° |
| 2026-05-07 16:51 | 27.06327 | -80.75788 | 33455 ft | 435 kts | 336° |
| 2026-05-07 16:51 | 27.09182 | -80.76891 | 33915 ft | 434 kts | 336° |
| 2026-05-07 16:51 | 27.12045 | -80.77978 | 34336 ft | 433 kts | 337° |
| 2026-05-07 16:51 | 27.14901 | -80.79053 | 34738 ft | 432 kts | 337° |
| 2026-05-07 16:52 | 27.17744 | -80.80122 | 35163 ft | 430 kts | 336° |
| 2026-05-07 16:52 | 27.20570 | -80.81188 | 35586 ft | 428 kts | 336° |
| 2026-05-07 16:52 | 27.23384 | -80.82252 | 35951 ft | 427 kts | 337° |
| 2026-05-07 16:53 | 27.28969 | -80.84370 | 36071 ft | 418 kts | 336° |
| 2026-05-07 16:53 | 27.34462 | -80.86487 | 36071 ft | 415 kts | 336° |
| 2026-05-07 16:54 | 27.39878 | -80.88710 | 36075 ft | 414 kts | 335° |
| 2026-05-07 16:54 | 27.45247 | -80.90962 | 36077 ft | 414 kts | 335° |
| 2026-05-07 16:55 | 27.50658 | -80.93208 | 36071 ft | 415 kts | 335° |
| 2026-05-07 16:55 | 27.56078 | -80.95435 | 36070 ft | 415 kts | 335° |
| 2026-05-07 16:56 | 27.61503 | -80.97668 | 36075 ft | 415 kts | 335° |
| 2026-05-07 16:56 | 27.69643 | -81.01023 | 36075 ft | 415 kts | 335° |
| 2026-05-07 16:57 | 27.75059 | -81.03271 | 36080 ft | 415 kts | 335° |
| 2026-05-07 16:57 | 27.80482 | -81.05520 | 36086 ft | 415 kts | 335° |
| 2026-05-07 16:58 | 27.85876 | -81.07755 | 36082 ft | 416 kts | 335° |
| 2026-05-07 16:58 | 27.91311 | -81.10011 | 36077 ft | 416 kts | 335° |
| 2026-05-07 16:59 | 27.96738 | -81.12265 | 36075 ft | 416 kts | 335° |
| 2026-05-07 16:59 | 28.02176 | -81.14526 | 36075 ft | 416 kts | 335° |
| 2026-05-07 17:00 | 28.07537 | -81.16960 | 36081 ft | 414 kts | 331° |
| 2026-05-07 17:00 | 28.12750 | -81.19705 | 36106 ft | 413 kts | 329° |
| 2026-05-07 17:01 | 28.17943 | -81.22485 | 36111 ft | 413 kts | 330° |
| 2026-05-07 17:01 | 28.23164 | -81.25207 | 36096 ft | 413 kts | 330° |
| 2026-05-07 17:02 | 28.28406 | -81.27900 | 36093 ft | 413 kts | 330° |
| 2026-05-07 17:02 | 28.33622 | -81.30588 | 36082 ft | 413 kts | 330° |
| 2026-05-07 17:03 | 28.38864 | -81.33285 | 36095 ft | 414 kts | 330° |
| 2026-05-07 17:03 | 28.44120 | -81.35960 | 36092 ft | 414 kts | 330° |
| 2026-05-07 17:04 | 28.49366 | -81.38634 | 36087 ft | 413 kts | 330° |
| 2026-05-07 17:04 | 28.54576 | -81.41301 | 36085 ft | 413 kts | 330° |
| 2026-05-07 17:05 | 28.59811 | -81.43988 | 36085 ft | 413 kts | 330° |
| 2026-05-07 17:05 | 28.65048 | -81.46680 | 36080 ft | 413 kts | 330° |
| 2026-05-07 17:06 | 28.70286 | -81.49378 | 36104 ft | 413 kts | 329° |
| 2026-05-07 17:06 | 28.75519 | -81.52062 | 36088 ft | 412 kts | 329° |
| 2026-05-07 17:07 | 28.80746 | -81.54749 | 36085 ft | 412 kts | 329° |
| 2026-05-07 17:07 | 28.85964 | -81.57436 | 36075 ft | 411 kts | 329° |
| 2026-05-07 17:08 | 28.91193 | -81.60093 | 36065 ft | 414 kts | 334° |
| 2026-05-07 17:08 | 28.96940 | -81.61330 | 36071 ft | 427 kts | 349° |
| 2026-05-07 17:09 | 29.02827 | -81.61845 | 36077 ft | 427 kts | 348° |
| 2026-05-07 17:09 | 29.08748 | -81.62379 | 36078 ft | 427 kts | 348° |
| 2026-05-07 17:10 | 29.14671 | -81.62922 | 36061 ft | 427 kts | 348° |
| 2026-05-07 17:10 | 29.20587 | -81.63471 | 36058 ft | 427 kts | 348° |
| 2026-05-07 17:11 | 29.26505 | -81.64017 | 36055 ft | 427 kts | 348° |
| 2026-05-07 17:11 | 29.32424 | -81.64559 | 36071 ft | 426 kts | 347° |
| 2026-05-07 17:12 | 29.38340 | -81.65100 | 36055 ft | 426 kts | 347° |
| 2026-05-07 17:12 | 29.44251 | -81.65647 | 36049 ft | 426 kts | 347° |
| 2026-05-07 17:13 | 29.50171 | -81.66194 | 36040 ft | 427 kts | 347° |
| 2026-05-07 17:13 | 29.56093 | -81.66740 | 36038 ft | 427 kts | 347° |
| 2026-05-07 17:14 | 29.62017 | -81.67290 | 36060 ft | 427 kts | 347° |
| 2026-05-07 17:14 | 29.67938 | -81.67839 | 36056 ft | 427 kts | 347° |
| 2026-05-07 17:15 | 29.73851 | -81.68382 | 36056 ft | 426 kts | 347° |
| 2026-05-07 17:15 | 29.79759 | -81.68927 | 36053 ft | 426 kts | 347° |
| 2026-05-07 17:16 | 29.85665 | -81.69474 | 36074 ft | 426 kts | 346° |